sensor_id;sensor_type;location;lat;lon;timestamp;pressure;altitude;pressure_sealevel;temperature;humidity
85499;BME280;75903;52.510;13.396;2024-01-30T00:01:09;102420.28;;;6.01;60.14
85499;BME280;75903;52.510;13.396;2024-01-30T00:03:35;102418.47;;;6.03;60.36
85499;BME280;75903;52.510;13.396;2024-01-30T00:06:00;102410.72;;;6.00;60.36
85499;BME280;75903;52.510;13.396;2024-01-30T00:08:28;102417.84;;;5.97;60.53
85499;BME280;75903;52.510;13.396;2024-01-30T00:10:53;102415.34;;;5.94;60.11
85499;BME280;75903;52.510;13.396;2024-01-30T00:13:19;102417.09;;;5.93;60.56
85499;BME280;75903;52.510;13.396;2024-01-30T00:15:45;102417.41;;;5.86;60.91
85499;BME280;75903;52.510;13.396;2024-01-30T00:18:10;102418.94;;;5.91;60.75
85499;BME280;75903;52.510;13.396;2024-01-30T00:20:36;102425.97;;;5.89;60.60
85499;BME280;75903;52.510;13.396;2024-01-30T00:23:01;102425.13;;;5.89;60.75
85499;BME280;75903;52.510;13.396;2024-01-30T00:25:27;102418.28;;;5.85;60.73
85499;BME280;75903;52.510;13.396;2024-01-30T00:27:52;102419.28;;;5.81;61.04
85499;BME280;75903;52.510;13.396;2024-01-30T00:30:18;102426.13;;;5.85;61.31
85499;BME280;75903;52.510;13.396;2024-01-30T00:32:43;102421.81;;;5.84;61.08
85499;BME280;75903;52.510;13.396;2024-01-30T00:35:09;102420.00;;;5.86;60.94
85499;BME280;75903;52.510;13.396;2024-01-30T00:37:35;102422.81;;;5.80;61.22
85499;BME280;75903;52.510;13.396;2024-01-30T00:40:01;102418.59;;;5.76;61.25
85499;BME280;75903;52.510;13.396;2024-01-30T00:42:27;102417.66;;;5.78;61.35
85499;BME280;75903;52.510;13.396;2024-01-30T00:44:52;102413.31;;;5.77;61.12
85499;BME280;75903;52.510;13.396;2024-01-30T00:47:18;102407.50;;;5.69;61.31
85499;BME280;75903;52.510;13.396;2024-01-30T00:49:43;102409.84;;;5.77;61.15
85499;BME280;75903;52.510;13.396;2024-01-30T00:52:08;102418.47;;;5.79;61.03
85499;BME280;75903;52.510;13.396;2024-01-30T00:54:34;102403.13;;;5.70;61.13
85499;BME280;75903;52.510;13.396;2024-01-30T00:56:59;102411.78;;;5.72;61.04
85499;BME280;75903;52.510;13.396;2024-01-30T00:59:25;102414.31;;;5.73;61.27
85499;BME280;75903;52.510;13.396;2024-01-30T01:01:50;102410.19;;;5.68;61.49
85499;BME280;75903;52.510;13.396;2024-01-30T01:04:16;102400.53;;;5.70;61.18
85499;BME280;75903;52.510;13.396;2024-01-30T01:06:42;102415.28;;;5.71;61.23
85499;BME280;75903;52.510;13.396;2024-01-30T01:09:12;102379.31;;;5.54;61.13
85499;BME280;75903;52.510;13.396;2024-01-30T01:11:37;102413.59;;;5.70;61.24
85499;BME280;75903;52.510;13.396;2024-01-30T01:14:04;102421.44;;;5.70;61.06
85499;BME280;75903;52.510;13.396;2024-01-30T01:16:29;102415.41;;;5.68;61.31
85499;BME280;75903;52.510;13.396;2024-01-30T01:18:55;102414.63;;;5.66;61.10
85499;BME280;75903;52.510;13.396;2024-01-30T01:21:20;102418.81;;;5.70;61.08
85499;BME280;75903;52.510;13.396;2024-01-30T01:23:45;102418.09;;;5.66;61.05
85499;BME280;75903;52.510;13.396;2024-01-30T01:26:11;102413.91;;;5.61;61.25
85499;BME280;75903;52.510;13.396;2024-01-30T01:28:36;102413.16;;;5.57;61.71
85499;BME280;75903;52.510;13.396;2024-01-30T01:31:01;102420.34;;;5.52;61.55
85499;BME280;75903;52.510;13.396;2024-01-30T01:33:34;102426.53;;;5.50;61.78
85499;BME280;75903;52.510;13.396;2024-01-30T01:36:00;102416.97;;;5.49;61.76
85499;BME280;75903;52.510;13.396;2024-01-30T01:38:29;102416.19;;;5.47;61.76
85499;BME280;75903;52.510;13.396;2024-01-30T01:40:54;102413.56;;;5.47;61.96
85499;BME280;75903;52.510;13.396;2024-01-30T01:43:20;102425.66;;;5.49;62.10
85499;BME280;75903;52.510;13.396;2024-01-30T01:45:45;102414.25;;;5.52;61.72
85499;BME280;75903;52.510;13.396;2024-01-30T01:48:11;102396.44;;;5.38;61.93
85499;BME280;75903;52.510;13.396;2024-01-30T01:50:38;102412.78;;;5.45;62.08
85499;BME280;75903;52.510;13.396;2024-01-30T01:53:05;102395.59;;;5.38;61.83
85499;BME280;75903;52.510;13.396;2024-01-30T01:55:32;102414.31;;;5.50;61.96
85499;BME280;75903;52.510;13.396;2024-01-30T01:57:59;102414.31;;;5.50;61.83
85499;BME280;75903;52.510;13.396;2024-01-30T02:00:24;102408.59;;;5.39;61.94
85499;BME280;75903;52.510;13.396;2024-01-30T02:02:50;102405.94;;;5.41;62.18
85499;BME280;75903;52.510;13.396;2024-01-30T02:05:17;102402.41;;;5.42;61.99
85499;BME280;75903;52.510;13.396;2024-01-30T02:07:43;102402.75;;;5.33;62.35
85499;BME280;75903;52.510;13.396;2024-01-30T02:10:09;102408.72;;;5.36;61.99
85499;BME280;75903;52.510;13.396;2024-01-30T02:12:37;102399.44;;;5.27;62.46
85499;BME280;75903;52.510;13.396;2024-01-30T02:15:03;102413.19;;;5.33;62.52
85499;BME280;75903;52.510;13.396;2024-01-30T02:17:30;102394.34;;;5.23;62.04
85499;BME280;75903;52.510;13.396;2024-01-30T02:19:55;102416.75;;;5.30;62.18
85499;BME280;75903;52.510;13.396;2024-01-30T02:22:21;102402.31;;;5.20;62.30
85499;BME280;75903;52.510;13.396;2024-01-30T02:24:47;102374.09;;;5.05;62.22
85499;BME280;75903;52.510;13.396;2024-01-30T02:27:12;102410.81;;;5.25;62.53
85499;BME280;75903;52.510;13.396;2024-01-30T02:29:38;102405.56;;;5.26;62.79
85499;BME280;75903;52.510;13.396;2024-01-30T02:32:03;102406.59;;;5.22;61.90
85499;BME280;75903;52.510;13.396;2024-01-30T02:34:29;102398.69;;;5.24;62.18
85499;BME280;75903;52.510;13.396;2024-01-30T02:36:54;102400.28;;;5.28;62.09
85499;BME280;75903;52.510;13.396;2024-01-30T02:39:20;102403.75;;;5.28;62.33
85499;BME280;75903;52.510;13.396;2024-01-30T02:41:45;102400.03;;;5.11;62.67
85499;BME280;75903;52.510;13.396;2024-01-30T02:44:10;102402.38;;;5.18;62.54
85499;BME280;75903;52.510;13.396;2024-01-30T02:46:36;102395.34;;;5.20;62.56
85499;BME280;75903;52.510;13.396;2024-01-30T02:49:01;102399.53;;;5.24;62.68
85499;BME280;75903;52.510;13.396;2024-01-30T02:51:27;102395.13;;;5.26;62.24
85499;BME280;75903;52.510;13.396;2024-01-30T02:53:52;102390.94;;;5.21;62.53
85499;BME280;75903;52.510;13.396;2024-01-30T02:56:17;102391.72;;;5.23;62.23
85499;BME280;75903;52.510;13.396;2024-01-30T02:58:43;102393.53;;;5.22;62.14
85499;BME280;75903;52.510;13.396;2024-01-30T03:01:08;102391.72;;;5.24;62.71
85499;BME280;75903;52.510;13.396;2024-01-30T03:03:33;102389.91;;;5.25;62.49
85499;BME280;75903;52.510;13.396;2024-01-30T03:06:02;102381.34;;;5.21;62.60
85499;BME280;75903;52.510;13.396;2024-01-30T03:08:28;102396.88;;;5.26;62.45
85499;BME280;75903;52.510;13.396;2024-01-30T03:10:53;102390.78;;;5.25;62.50
85499;BME280;75903;52.510;13.396;2024-01-30T03:13:18;102383.16;;;5.19;62.15
85499;BME280;75903;52.510;13.396;2024-01-30T03:15:44;102379.81;;;5.16;62.67
85499;BME280;75903;52.510;13.396;2024-01-30T03:18:09;102377.19;;;5.16;62.94
85499;BME280;75903;52.510;13.396;2024-01-30T03:20:34;102369.56;;;5.10;62.79
85499;BME280;75903;52.510;13.396;2024-01-30T03:23:00;102380.66;;;5.16;62.67
85499;BME280;75903;52.510;13.396;2024-01-30T03:25:26;102378.13;;;5.15;62.87
85499;BME280;75903;52.510;13.396;2024-01-30T03:27:51;102384.16;;;5.15;62.92
85499;BME280;75903;52.510;13.396;2024-01-30T03:30:16;102378.13;;;5.13;63.34
85499;BME280;75903;52.510;13.396;2024-01-30T03:32:42;102367.97;;;5.06;62.76
85499;BME280;75903;52.510;13.396;2024-01-30T03:35:08;102381.47;;;5.18;63.00
85499;BME280;75903;52.510;13.396;2024-01-30T03:37:34;102376.38;;;5.14;62.77
85499;BME280;75903;52.510;13.396;2024-01-30T03:39:59;102382.41;;;5.16;63.20
85499;BME280;75903;52.510;13.396;2024-01-30T03:42:24;102383.28;;;5.16;63.31
85499;BME280;75903;52.510;13.396;2024-01-30T03:44:50;102372.13;;;5.11;63.06
85499;BME280;75903;52.510;13.396;2024-01-30T03:47:19;102348.19;;;4.99;62.90
85499;BME280;75903;52.510;13.396;2024-01-30T03:49:44;102376.75;;;5.03;63.55
85499;BME280;75903;52.510;13.396;2024-01-30T03:52:10;102376.72;;;5.05;63.63
85499;BME280;75903;52.510;13.396;2024-01-30T03:54:35;102374.13;;;5.03;63.80
85499;BME280;75903;52.510;13.396;2024-01-30T03:57:00;102372.44;;;5.02;63.46
85499;BME280;75903;52.510;13.396;2024-01-30T03:59:26;102375.13;;;5.01;63.66
85499;BME280;75903;52.510;13.396;2024-01-30T04:01:51;102369.03;;;5.00;63.73
85499;BME280;75903;52.510;13.396;2024-01-30T04:04:17;102372.31;;;5.05;63.75
85499;BME280;75903;52.510;13.396;2024-01-30T04:06:44;102372.38;;;5.04;63.87
85499;BME280;75903;52.510;13.396;2024-01-30T04:09:09;102372.25;;;5.08;63.97
85499;BME280;75903;52.510;13.396;2024-01-30T04:11:35;102370.50;;;5.07;64.13
85499;BME280;75903;52.510;13.396;2024-01-30T04:14:00;102374.13;;;5.03;63.76
85499;BME280;75903;52.510;13.396;2024-01-30T04:16:25;102373.47;;;4.98;64.22
85499;BME280;75903;52.510;13.396;2024-01-30T04:18:51;102383.09;;;4.96;64.57
85499;BME280;75903;52.510;13.396;2024-01-30T04:21:17;102379.75;;;4.93;64.73
85499;BME280;75903;52.510;13.396;2024-01-30T04:23:43;102369.44;;;4.88;64.58
85499;BME280;75903;52.510;13.396;2024-01-30T04:26:08;102375.31;;;4.95;64.57
85499;BME280;75903;52.510;13.396;2024-01-30T04:28:33;102374.56;;;4.91;64.63
85499;BME280;75903;52.510;13.396;2024-01-30T04:30:59;102372.00;;;4.90;64.69
85499;BME280;75903;52.510;13.396;2024-01-30T04:33:24;102370.09;;;4.95;64.42
85499;BME280;75903;52.510;13.396;2024-01-30T04:35:49;102366.63;;;4.94;64.76
85499;BME280;75903;52.510;13.396;2024-01-30T04:38:15;102374.47;;;4.94;64.95
85499;BME280;75903;52.510;13.396;2024-01-30T04:40:40;102364.81;;;4.96;64.98
85499;BME280;75903;52.510;13.396;2024-01-30T04:43:06;102342.47;;;4.88;64.77
85499;BME280;75903;52.510;13.396;2024-01-30T04:45:31;102350.75;;;5.00;64.42
85499;BME280;75903;52.510;13.396;2024-01-30T04:47:57;102360.28;;;5.01;64.67
85499;BME280;75903;52.510;13.396;2024-01-30T04:50:23;102364.47;;;5.07;64.43
85499;BME280;75903;52.510;13.396;2024-01-30T04:52:48;102349.94;;;4.98;64.52
85499;BME280;75903;52.510;13.396;2024-01-30T04:55:14;102365.34;;;5.06;64.48
85499;BME280;75903;52.510;13.396;2024-01-30T04:57:40;102359.31;;;5.04;64.64
85499;BME280;75903;52.510;13.396;2024-01-30T05:00:06;102362.69;;;5.07;64.95
85499;BME280;75903;52.510;13.396;2024-01-30T05:02:31;102360.19;;;5.04;64.82
85499;BME280;75903;52.510;13.396;2024-01-30T05:04:57;102351.56;;;5.02;64.69
85499;BME280;75903;52.510;13.396;2024-01-30T05:07:24;102361.03;;;5.05;64.50
85499;BME280;75903;52.510;13.396;2024-01-30T05:09:49;102350.59;;;5.05;64.49
85499;BME280;75903;52.510;13.396;2024-01-30T05:12:15;102363.47;;;5.09;64.79
85499;BME280;75903;52.510;13.396;2024-01-30T05:14:40;102360.19;;;5.04;64.80
85499;BME280;75903;52.510;13.396;2024-01-30T05:17:06;102365.25;;;5.09;64.96
85499;BME280;75903;52.510;13.396;2024-01-30T05:19:31;102356.66;;;5.05;64.67
85499;BME280;75903;52.510;13.396;2024-01-30T05:21:57;102363.47;;;5.09;65.00
85499;BME280;75903;52.510;13.396;2024-01-30T05:24:22;102365.28;;;5.07;65.17
85499;BME280;75903;52.510;13.396;2024-01-30T05:26:47;102369.69;;;5.07;64.96
85499;BME280;75903;52.510;13.396;2024-01-30T05:29:13;102351.63;;;4.99;64.63
85499;BME280;75903;52.510;13.396;2024-01-30T05:31:38;102366.28;;;5.05;64.86
85499;BME280;75903;52.510;13.396;2024-01-30T05:34:04;102349.94;;;4.98;65.36
85499;BME280;75903;52.510;13.396;2024-01-30T05:36:29;102353.16;;;5.06;65.29
85499;BME280;75903;52.510;13.396;2024-01-30T05:38:56;102352.34;;;5.04;65.23
85499;BME280;75903;52.510;13.396;2024-01-30T05:41:21;102353.03;;;5.09;65.12
85499;BME280;75903;52.510;13.396;2024-01-30T05:43:47;102350.38;;;5.11;66.42
85499;BME280;75903;52.510;13.396;2024-01-30T05:46:12;102348.38;;;5.17;66.26
85499;BME280;75903;52.510;13.396;2024-01-30T05:48:38;102348.97;;;5.25;65.12
85499;BME280;75903;52.510;13.396;2024-01-30T05:51:04;102331.13;;;5.13;65.14
85499;BME280;75903;52.510;13.396;2024-01-30T05:53:29;102347.38;;;5.21;64.58
85499;BME280;75903;52.510;13.396;2024-01-30T05:55:55;102351.94;;;5.16;65.03
85499;BME280;75903;52.510;13.396;2024-01-30T05:58:20;102340.81;;;5.10;65.13
85499;BME280;75903;52.510;13.396;2024-01-30T06:00:46;102351.19;;;5.13;65.22
85499;BME280;75903;52.510;13.396;2024-01-30T06:03:12;102343.38;;;5.11;65.27
85499;BME280;75903;52.510;13.396;2024-01-30T06:05:37;102346.91;;;5.10;65.22
85499;BME280;75903;52.510;13.396;2024-01-30T06:08:03;102333.31;;;5.01;65.53
85499;BME280;75903;52.510;13.396;2024-01-30T06:10:28;102348.00;;;5.03;65.39
85499;BME280;75903;52.510;13.396;2024-01-30T06:12:53;102348.13;;;5.00;65.63
85499;BME280;75903;52.510;13.396;2024-01-30T06:15:19;102354.97;;;5.04;65.55
85499;BME280;75903;52.510;13.396;2024-01-30T06:17:44;102354.09;;;5.04;65.35
85499;BME280;75903;52.510;13.396;2024-01-30T06:20:10;102349.00;;;5.01;65.51
85499;BME280;75903;52.510;13.396;2024-01-30T06:22:35;102343.06;;;4.96;65.66
85499;BME280;75903;52.510;13.396;2024-01-30T06:25:00;102336.41;;;5.12;79.54
85499;BME280;75903;52.510;13.396;2024-01-30T06:27:26;102339.81;;;6.71;67.54
85499;BME280;75903;52.510;13.396;2024-01-30T06:29:52;102320.56;;;6.92;59.97
85499;BME280;75903;52.510;13.396;2024-01-30T06:32:17;102334.19;;;6.80;59.70
85499;BME280;75903;52.510;13.396;2024-01-30T06:34:42;102332.72;;;6.53;60.58
85499;BME280;75903;52.510;13.396;2024-01-30T06:37:09;102342.47;;;6.28;61.30
85499;BME280;75903;52.510;13.396;2024-01-30T06:39:35;102342.41;;;6.08;61.90
85499;BME280;75903;52.510;13.396;2024-01-30T06:42:00;102346.53;;;5.92;62.14
85499;BME280;75903;52.510;13.396;2024-01-30T06:44:25;102329.19;;;5.66;63.02
85499;BME280;75903;52.510;13.396;2024-01-30T06:46:51;102344.97;;;5.63;63.12
85499;BME280;75903;52.510;13.396;2024-01-30T06:49:16;102329.72;;;5.51;63.88
85499;BME280;75903;52.510;13.396;2024-01-30T06:51:41;102345.63;;;5.47;64.03
85499;BME280;75903;52.510;13.396;2024-01-30T06:54:07;102338.00;;;5.41;64.20
85499;BME280;75903;52.510;13.396;2024-01-30T06:56:32;102337.44;;;5.31;64.01
85499;BME280;75903;52.510;13.396;2024-01-30T06:58:57;102336.63;;;5.31;64.58
85499;BME280;75903;52.510;13.396;2024-01-30T07:01:30;102345.34;;;5.29;64.42
85499;BME280;75903;52.510;13.396;2024-01-30T07:03:57;102340.25;;;5.26;64.50
85499;BME280;75903;52.510;13.396;2024-01-30T07:06:22;102340.25;;;5.26;64.79
85499;BME280;75903;52.510;13.396;2024-01-30T07:08:49;102332.84;;;5.14;65.25
85499;BME280;75903;52.510;13.396;2024-01-30T07:11:19;102330.31;;;5.11;64.90
85499;BME280;75903;52.510;13.396;2024-01-30T07:13:45;102347.38;;;5.21;64.93
85499;BME280;75903;52.510;13.396;2024-01-30T07:16:11;102344.75;;;5.21;65.18
85499;BME280;75903;52.510;13.396;2024-01-30T07:18:37;102348.97;;;5.25;65.18
85499;BME280;75903;52.510;13.396;2024-01-30T07:21:03;102342.88;;;5.25;64.49
85499;BME280;75903;52.510;13.396;2024-01-30T07:23:29;102334.31;;;5.21;65.08
85499;BME280;75903;52.510;13.396;2024-01-30T07:25:55;102333.44;;;5.21;64.83
85499;BME280;75903;52.510;13.396;2024-01-30T07:28:20;102343.75;;;5.25;64.86
85499;BME280;75903;52.510;13.396;2024-01-30T07:30:45;102336.84;;;5.24;65.25
85499;BME280;75903;52.510;13.396;2024-01-30T07:33:12;102336.72;;;5.27;65.02
85499;BME280;75903;52.510;13.396;2024-01-30T07:35:38;102341.84;;;5.31;65.17
85499;BME280;75903;52.510;13.396;2024-01-30T07:38:03;102333.78;;;5.37;65.02
85499;BME280;75903;52.510;13.396;2024-01-30T07:40:28;102329.44;;;5.36;64.88
85499;BME280;75903;52.510;13.396;2024-01-30T07:42:55;102309.50;;;5.33;64.84
85499;BME280;75903;52.510;13.396;2024-01-30T07:45:20;102327.31;;;5.47;64.53
85499;BME280;75903;52.510;13.396;2024-01-30T07:47:50;102329.78;;;5.50;64.28
85499;BME280;75903;52.510;13.396;2024-01-30T07:50:15;102334.09;;;5.51;64.22
85499;BME280;75903;52.510;13.396;2024-01-30T07:52:42;102334.97;;;5.51;64.21
85499;BME280;75903;52.510;13.396;2024-01-30T07:55:07;102323.78;;;5.48;64.31
85499;BME280;75903;52.510;13.396;2024-01-30T07:57:33;102320.19;;;5.50;63.90
85499;BME280;75903;52.510;13.396;2024-01-30T07:59:59;102318.41;;;5.51;63.91
85499;BME280;75903;52.510;13.396;2024-01-30T08:02:25;102339.88;;;5.60;64.25
85499;BME280;75903;52.510;13.396;2024-01-30T08:04:50;102283.25;;;5.36;63.89
85499;BME280;75903;52.510;13.396;2024-01-30T08:07:16;102331.25;;;5.57;64.33
85499;BME280;75903;52.510;13.396;2024-01-30T08:09:43;102326.00;;;5.58;64.08
85499;BME280;75903;52.510;13.396;2024-01-30T08:12:08;102324.50;;;5.51;64.01
85499;BME280;75903;52.510;13.396;2024-01-30T08:14:34;102331.09;;;5.61;63.99
85499;BME280;75903;52.510;13.396;2024-01-30T08:16:59;102322.22;;;5.65;63.98
85499;BME280;75903;52.510;13.396;2024-01-30T08:19:24;102311.78;;;5.65;63.65
85499;BME280;75903;52.510;13.396;2024-01-30T08:21:50;102319.22;;;5.76;64.07
85499;BME280;75903;52.510;13.396;2024-01-30T08:24:15;102320.19;;;5.73;63.83
85499;BME280;75903;52.510;13.396;2024-01-30T08:26:41;102320.75;;;5.81;62.93
85499;BME280;75903;52.510;13.396;2024-01-30T08:29:06;102319.00;;;5.82;63.45
85499;BME280;75903;52.510;13.396;2024-01-30T08:31:32;102300.72;;;5.80;63.68
85499;BME280;75903;52.510;13.396;2024-01-30T08:33:58;102325.03;;;5.82;63.33
85499;BME280;75903;52.510;13.396;2024-01-30T08:36:25;102315.31;;;5.87;63.42
85499;BME280;75903;52.510;13.396;2024-01-30T08:38:50;102309.06;;;5.91;63.57
85499;BME280;75903;52.510;13.396;2024-01-30T08:41:16;102313.31;;;5.94;63.60
85499;BME280;75903;52.510;13.396;2024-01-30T08:43:41;102303.66;;;5.96;63.15
85499;BME280;75903;52.510;13.396;2024-01-30T08:46:07;102317.53;;;5.98;63.15
85499;BME280;75903;52.510;13.396;2024-01-30T08:48:32;102317.28;;;6.04;63.26
85499;BME280;75903;52.510;13.396;2024-01-30T08:50:57;102312.94;;;6.03;63.23
85499;BME280;75903;52.510;13.396;2024-01-30T08:53:23;102304.94;;;6.07;62.62
85499;BME280;75903;52.510;13.396;2024-01-30T08:55:48;102305.50;;;6.14;63.22
85499;BME280;75903;52.510;13.396;2024-01-30T08:58:14;102298.22;;;6.22;62.99
85499;BME280;75903;52.510;13.396;2024-01-30T09:00:40;102303.41;;;6.24;62.77
85499;BME280;75903;52.510;13.396;2024-01-30T09:03:06;102285.38;;;6.16;62.50
85499;BME280;75903;52.510;13.396;2024-01-30T09:05:31;102307.34;;;6.34;62.71
85499;BME280;75903;52.510;13.396;2024-01-30T09:07:57;102308.00;;;6.39;62.69
85499;BME280;75903;52.510;13.396;2024-01-30T09:10:22;102300.28;;;6.36;62.21
85499;BME280;75903;52.510;13.396;2024-01-30T09:12:48;102298.06;;;6.47;61.69
85499;BME280;75903;52.510;13.396;2024-01-30T09:15:14;102304.97;;;6.49;61.57
85499;BME280;75903;52.510;13.396;2024-01-30T09:17:40;102303.91;;;6.53;61.44
85499;BME280;75903;52.510;13.396;2024-01-30T09:20:06;102295.00;;;6.57;61.34
85499;BME280;75903;52.510;13.396;2024-01-30T09:22:31;102310.47;;;6.63;61.35
85499;BME280;75903;52.510;13.396;2024-01-30T09:24:57;102308.66;;;6.65;61.42
85499;BME280;75903;52.510;13.396;2024-01-30T09:27:23;102306.56;;;6.73;61.12
85499;BME280;75903;52.510;13.396;2024-01-30T09:29:49;102309.22;;;6.72;60.58
85499;BME280;75903;52.510;13.396;2024-01-30T09:32:15;102299.59;;;6.72;60.30
85499;BME280;75903;52.510;13.396;2024-01-30T09:34:40;102290.09;;;6.70;60.19
85499;BME280;75903;52.510;13.396;2024-01-30T09:37:07;102293.25;;;6.78;60.11
85499;BME280;75903;52.510;13.396;2024-01-30T09:39:32;102311.91;;;6.90;60.34
85499;BME280;75903;52.510;13.396;2024-01-30T09:42:04;102304.84;;;6.92;60.41
85499;BME280;75903;52.510;13.396;2024-01-30T09:44:30;102302.84;;;6.97;59.48
85499;BME280;75903;52.510;13.396;2024-01-30T09:46:56;102278.91;;;6.86;59.99
85499;BME280;75903;52.510;13.396;2024-01-30T09:49:30;102281.00;;;6.98;59.52
85499;BME280;75903;52.510;13.396;2024-01-30T09:51:57;102299.78;;;7.08;61.43
85499;BME280;75903;52.510;13.396;2024-01-30T09:54:23;102298.91;;;7.28;60.03
85499;BME280;75903;52.510;13.396;2024-01-30T09:56:48;102287.06;;;7.38;59.64
85499;BME280;75903;52.510;13.396;2024-01-30T09:59:14;102291.63;;;7.53;57.70
85499;BME280;75903;52.510;13.396;2024-01-30T10:01:40;102288.59;;;7.62;57.70
85499;BME280;75903;52.510;13.396;2024-01-30T10:04:07;102279.84;;;7.61;57.07
85499;BME280;75903;52.510;13.396;2024-01-30T10:06:32;102283.06;;;7.68;57.38
85499;BME280;75903;52.510;13.396;2024-01-30T10:08:58;102288.16;;;7.71;56.40
85499;BME280;75903;52.510;13.396;2024-01-30T10:11:23;102280.94;;;7.76;57.00
85499;BME280;75903;52.510;13.396;2024-01-30T10:13:49;102282.63;;;7.77;56.85
85499;BME280;75903;52.510;13.396;2024-01-30T10:16:14;102280.69;;;7.80;55.23
85499;BME280;75903;52.510;13.396;2024-01-30T10:18:42;102268.88;;;7.72;55.18
85499;BME280;75903;52.510;13.396;2024-01-30T10:21:08;102282.63;;;7.77;54.78
85499;BME280;75903;52.510;13.396;2024-01-30T10:23:35;102279.84;;;7.80;54.99
85499;BME280;75903;52.510;13.396;2024-01-30T10:26:03;102268.28;;;7.84;54.80
85499;BME280;75903;52.510;13.396;2024-01-30T10:28:29;102267.56;;;7.80;54.58
85499;BME280;75903;52.510;13.396;2024-01-30T10:31:02;102272.22;;;7.93;53.95
85499;BME280;75903;52.510;13.396;2024-01-30T10:33:31;102261.81;;;7.91;54.93
85499;BME280;75903;52.510;13.396;2024-01-30T10:36:00;102273.09;;;7.93;53.35
85499;BME280;75903;52.510;13.396;2024-01-30T10:38:29;102276.97;;;8.03;53.60
85499;BME280;75903;52.510;13.396;2024-01-30T10:41:00;102260.25;;;8.06;55.87
85499;BME280;75903;52.510;13.396;2024-01-30T10:43:36;102266.38;;;8.23;55.71
85499;BME280;75903;52.510;13.396;2024-01-30T10:46:18;102274.16;;;8.43;54.66
85499;BME280;75903;52.510;13.396;2024-01-30T10:48:57;102264.09;;;8.68;55.20
85499;BME280;75903;52.510;13.396;2024-01-30T10:51:26;102269.41;;;8.84;54.08
85499;BME280;75903;52.510;13.396;2024-01-30T10:53:52;102268.84;;;8.95;52.10
85499;BME280;75903;52.510;13.396;2024-01-30T10:56:21;102265.69;;;8.88;51.46
85499;BME280;75903;52.510;13.396;2024-01-30T10:58:53;102268.63;;;8.82;51.55
85499;BME280;75903;52.510;13.396;2024-01-30T11:01:22;102267.84;;;8.80;51.67
85499;BME280;75903;52.510;13.396;2024-01-30T11:03:52;102258.59;;;8.73;51.71
85499;BME280;75903;52.510;13.396;2024-01-30T11:06:17;102268.25;;;8.72;51.44
85499;BME280;75903;52.510;13.396;2024-01-30T11:09:00;102260.06;;;8.44;51.96
85499;BME280;75903;52.510;13.396;2024-01-30T11:11:26;102275.22;;;8.56;52.13
85499;BME280;75903;52.510;13.396;2024-01-30T11:13:51;102264.72;;;8.56;51.92
85499;BME280;75903;52.510;13.396;2024-01-30T11:16:17;102270.72;;;8.58;52.83
85499;BME280;75903;52.510;13.396;2024-01-30T11:18:50;102264.56;;;8.59;52.44
85499;BME280;75903;52.510;13.396;2024-01-30T11:21:17;102246.03;;;8.45;51.67
85499;BME280;75903;52.510;13.396;2024-01-30T11:23:42;102267.09;;;8.61;52.29
85499;BME280;75903;52.510;13.396;2024-01-30T11:26:10;102249.56;;;8.61;52.58
85499;BME280;75903;52.510;13.396;2024-01-30T11:28:37;102255.53;;;8.65;52.37
85499;BME280;75903;52.510;13.396;2024-01-30T11:31:07;102258.59;;;8.73;52.38
85499;BME280;75903;52.510;13.396;2024-01-30T11:33:33;102250.19;;;8.66;52.63
85499;BME280;75903;52.510;13.396;2024-01-30T11:36:00;102256.03;;;8.71;52.92
85499;BME280;75903;52.510;13.396;2024-01-30T11:38:26;102246.28;;;8.73;53.28
85499;BME280;75903;52.510;13.396;2024-01-30T11:40:54;102252.31;;;8.75;52.79
85499;BME280;75903;52.510;13.396;2024-01-30T11:43:20;102259.75;;;8.85;52.07
85499;BME280;75903;52.510;13.396;2024-01-30T11:45:45;102244.75;;;8.87;52.87
85499;BME280;75903;52.510;13.396;2024-01-30T11:48:12;102247.38;;;8.87;52.50
85499;BME280;75903;52.510;13.396;2024-01-30T11:50:39;102227.13;;;8.71;51.91
85499;BME280;75903;52.510;13.396;2024-01-30T11:53:05;102248.06;;;8.90;52.23
85499;BME280;75903;52.510;13.396;2024-01-30T11:55:31;102227.34;;;8.84;52.51
85499;BME280;75903;52.510;13.396;2024-01-30T11:57:57;102249.69;;;8.93;52.05
85499;BME280;75903;52.510;13.396;2024-01-30T12:00:23;102239.94;;;8.95;51.98
85499;BME280;75903;52.510;13.396;2024-01-30T12:02:53;102221.94;;;8.87;51.93
85499;BME280;75903;52.510;13.396;2024-01-30T12:05:23;102243.09;;;9.01;52.63
85499;BME280;75903;52.510;13.396;2024-01-30T12:07:49;102228.91;;;9.04;51.55
85499;BME280;75903;52.510;13.396;2024-01-30T12:10:15;102235.72;;;9.08;52.74
85499;BME280;75903;52.510;13.396;2024-01-30T12:12:46;102218.84;;;9.12;52.25
85499;BME280;75903;52.510;13.396;2024-01-30T12:15:13;102226.66;;;9.13;51.63
85499;BME280;75903;52.510;13.396;2024-01-30T12:17:39;102224.88;;;9.14;51.73
85499;BME280;75903;52.510;13.396;2024-01-30T12:20:08;102223.44;;;9.24;51.66
85499;BME280;75903;52.510;13.396;2024-01-30T12:22:42;102215.22;;;9.30;52.23
85499;BME280;75903;52.510;13.396;2024-01-30T12:25:09;102200.53;;;9.26;52.53
85499;BME280;75903;52.510;13.396;2024-01-30T12:27:35;102204.38;;;9.36;52.30
85499;BME280;75903;52.510;13.396;2024-01-30T12:30:01;102203.78;;;9.31;52.52
85499;BME280;75903;52.510;13.396;2024-01-30T12:32:27;102202.50;;;9.38;52.79
85499;BME280;75903;52.510;13.396;2024-01-30T12:34:56;102194.25;;;9.59;55.06
85499;BME280;75903;52.510;13.396;2024-01-30T12:37:22;102179.66;;;10.15;55.92
85499;BME280;75903;52.510;13.396;2024-01-30T12:39:51;102185.34;;;10.81;52.23
85499;BME280;75903;52.510;13.396;2024-01-30T12:42:19;102188.88;;;11.36;50.14
85499;BME280;75903;52.510;13.396;2024-01-30T12:44:46;102179.69;;;11.15;48.07